Time;durP1;ratioP1;P1;durP2;ratioP2;P2;SDS_P1;SDS_P2;PMS_P1;PMS_P2;Temp;Humidity;BMP_temperature;BMP_pressure;BME280_temperature;BME280_humidity;BME280_pressure;Samples;Min_cycle;Max_cycle;Signal;HPM_P1;HPM_P2
2022/03/27 08:03:38;;;;;;;;;;;;;;;10.76;55.83;97902.16;4221296;27;11192;-62
2022/03/27 08:05:42;;;;;;;;;;;;;;;10.59;56.30;97904.97;4203511;28;5858;-62
2022/03/27 08:07:45;;;;;;;;;;;;;;;10.65;56.55;97907.78;4194411;28;5245;-62
2022/03/27 08:09:46;;;;;;;;;;;;;;;10.63;56.77;97914.19;4194515;28;5809;-63
2022/03/27 08:11:48;;;;;;;;;;;;;;;10.75;57.28;97915.50;4194342;28;5870;-62
2022/03/27 08:13:50;;;;;;;;;;;;;;;10.73;56.77;97914.84;4198323;28;5824;-62
2022/03/27 08:15:52;;;;;;;;;;;;;;;10.72;57.63;97905.28;4211381;28;5776;-62
2022/03/27 08:17:54;;;;;;;;;;;;;;;10.77;57.29;97910.91;4211222;28;5750;-62
2022/03/27 08:19:57;;;;;;;;;;;;;;;10.74;58.05;97911.22;4200227;28;5827;-62
2022/03/27 08:21:59;;;;;;;;;;;;;;;10.85;56.08;97905.59;4175874;28;5903;-62
2022/03/27 08:24:01;;;;;;;;;;;;;;;11.06;54.90;97905.06;4185732;28;5834;-62
2022/03/27 08:28:23;;;;;;;;;;;;;;;11.13;57.74;97910.50;4177937;28;5842;-62
2022/03/27 08:30:25;;;;;;;;;;;;;;;11.15;57.80;97919.09;4181252;28;5835;-62
2022/03/27 08:32:27;;;;;;;;;;;;;;;11.29;56.92;97908.63;4187401;28;5802;-61
2022/03/27 08:34:31;;;;;;;;;;;;;;;11.23;57.59;97917.25;4182108;28;6852;-61
2022/03/27 08:36:33;;;;;;;;;;;;;;;11.36;57.40;97922.03;4191725;28;5777;-61
2022/03/27 08:38:35;;;;;;;;;;;;;;;11.58;56.08;97923.94;4175755;28;5159;-62
2022/03/27 08:40:38;;;;;;;;;;;;;;;11.62;56.70;97916.47;4191472;28;5821;-62
2022/03/27 08:42:40;;;;;;;;;;;;;;;11.65;55.96;97918.75;4175299;28;5943;-61
2022/03/27 08:44:42;;;;;;;;;;;;;;;11.70;55.94;97919.06;4176231;28;5831;-62
2022/03/27 08:46:45;;;;;;;;;;;;;;;11.58;56.64;97920.44;4185451;28;5825;-61
2022/03/27 08:48:50;;;;;;;;;;;;;;;11.24;56.01;97918.09;4179698;28;5834;-62
2022/03/27 08:51:28;;;;;;;;;;;;;;;11.25;57.85;97919.75;4187558;28;5835;-61
2022/03/27 08:53:35;;;;;;;;;;;;;;;11.11;57.36;97917.78;4179318;28;5874;-62
2022/03/27 08:55:43;;;;;;;;;;;;;;;11.34;57.10;97918.72;4192921;28;5813;-62
2022/03/27 08:57:47;;;;;;;;;;;;;;;11.56;56.47;97917.16;4187405;28;5817;-62
2022/03/27 08:59:53;;;;;;;;;;;;;;;11.25;54.75;97925.03;4177829;28;5868;-62
2022/03/27 09:01:55;;;;;;;;;;;;;;;11.41;54.98;97917.03;4181215;28;5088;-61
2022/03/27 09:03:56;;;;;;;;;;;;;;;11.36;55.08;97920.19;4183802;28;5731;-61
2022/03/27 09:06:01;;;;;;;;;;;;;;;11.54;54.15;97919.94;4183936;28;5703;-64
2022/03/27 09:08:10;;;;;;;;;;;;;;;11.72;54.72;97922.38;4179303;28;5803;-60
2022/03/27 09:10:14;;;;;;;;;;;;;;;11.76;56.04;97928.97;4170313;28;5753;-61
2022/03/27 09:12:19;;;;;;;;;;;;;;;11.65;55.73;97926.69;4178475;28;5711;-60
2022/03/27 09:14:21;;;;;;;;;;;;;;;11.76;55.37;97922.84;4175134;28;6541;-60
2022/03/27 09:16:23;;;;;;;;;;;;;;;11.84;56.00;97922.84;4169629;28;5909;-60
2022/03/27 09:18:24;;;;;;;;;;;;;;;12.03;55.71;97919.75;4170349;28;5967;-60
2022/03/27 09:20:36;;;;;;;;;;;;;;;12.07;58.27;97929.00;4176661;28;5731;-60
2022/03/27 09:22:38;;;;;;;;;;;;;;;12.10;57.48;97923.34;4174527;28;5847;-60
2022/03/27 09:24:41;;;;;;;;;;;;;;;12.11;56.88;97926.81;4170617;28;5863;-60
2022/03/27 09:26:59;;;;;;;;;;;;;;;12.13;56.19;97924.84;4181802;28;5819;-60
2022/03/27 09:29:10;;;;;;;;;;;;;;;11.81;55.85;97923.19;4171165;28;5921;-60
2022/03/27 09:31:13;;;;;;;;;;;;;;;11.84;55.36;97923.66;4175799;28;5723;-60
2022/03/27 09:33:35;;;;;;;;;;;;;;;11.80;54.87;97918.91;4180792;28;5955;-60
2022/03/27 09:35:37;;;;;;;;;;;;;;;11.84;57.40;97920.19;4176391;28;5738;-60
2022/03/27 09:37:46;;;;;;;;;;;;;;;11.98;57.07;97916.78;4169200;28;5817;-60
2022/03/27 09:39:57;;;;;;;;;;;;;;;12.03;54.18;97914.47;4168388;28;5811;-62
2022/03/27 09:42:00;;;;;;;;;;;;;;;12.02;53.14;97909.34;4176217;28;5815;-61
2022/03/27 09:44:06;;;;;;;;;;;;;;;12.11;52.86;97910.91;4176109;28;5742;-64
2022/03/27 09:46:07;;;;;;;;;;;;;;;12.15;51.80;97915.72;4175668;28;5731;-60
2022/03/27 09:48:10;;;;;;;;;;;;;;;12.07;52.75;97912.28;4170750;28;5804;-61
2022/03/27 09:50:34;;;;;;;;;;;;;;;12.15;53.89;97914.88;4177420;28;5748;-63
2022/03/27 09:52:37;;;;;;;;;;;;;;;12.30;54.21;97914.94;4178319;28;5706;-60
2022/03/27 09:55:05;;;;;;;;;;;;;;;12.39;52.03;97914.72;4175327;28;5744;-61
2022/03/27 09:57:19;;;;;;;;;;;;;;;12.29;48.79;97910.66;4175420;28;5954;-61
2022/03/27 09:59:31;;;;;;;;;;;;;;;12.48;49.32;97902.22;4181310;28;5801;-60
2022/03/27 10:01:33;;;;;;;;;;;;;;;12.48;51.60;97912.84;4174544;28;5744;-61
2022/03/27 10:04:00;;;;;;;;;;;;;;;12.59;49.95;97911.59;4167790;28;5732;-61
2022/03/27 10:06:03;;;;;;;;;;;;;;;12.67;51.15;97906.19;4194491;28;5810;-60
2022/03/27 10:08:05;;;;;;;;;;;;;;;12.66;47.97;97904.53;4172259;28;6426;-60
2022/03/27 10:10:21;;;;;;;;;;;;;;;12.53;43.13;97894.53;4197922;28;5701;-60
2022/03/27 10:12:29;;;;;;;;;;;;;;;12.36;47.89;97893.03;4175824;28;5965;-61
2022/03/27 10:14:31;;;;;;;;;;;;;;;12.60;45.50;97889.38;4188239;28;5867;-61
2022/03/27 10:16:46;;;;;;;;;;;;;;;12.53;39.93;97889.25;4165542;28;5768;-61
2022/03/27 10:18:51;;;;;;;;;;;;;;;12.58;42.28;97889.53;4176354;28;5841;-61
2022/03/27 10:20:58;;;;;;;;;;;;;;;12.79;41.51;97894.13;4184345;28;5735;-61
2022/03/27 10:23:07;;;;;;;;;;;;;;;12.67;41.30;97895.56;4183081;28;5810;-60
2022/03/27 10:25:12;;;;;;;;;;;;;;;12.85;42.60;97889.97;4182989;28;5970;-59
2022/03/27 10:27:17;;;;;;;;;;;;;;;12.74;39.77;97886.72;4175369;28;5764;-60
2022/03/27 10:29:19;;;;;;;;;;;;;;;12.72;42.81;97888.75;4173109;28;5719;-61
2022/03/27 10:31:23;;;;;;;;;;;;;;;12.86;45.19;97896.91;4175853;28;5898;-61
2022/03/27 10:33:27;;;;;;;;;;;;;;;12.92;43.81;97885.59;4182142;28;5718;-61
2022/03/27 10:36:08;;;;;;;;;;;;;;;12.96;44.01;97885.03;4183169;28;5751;-61
2022/03/27 10:38:16;;;;;;;;;;;;;;;12.99;41.01;97886.50;4167362;28;5835;-61
2022/03/27 10:40:25;;;;;;;;;;;;;;;13.08;42.37;97880.09;4167044;28;5724;-60
2022/03/27 10:42:45;;;;;;;;;;;;;;;13.18;44.70;97880.66;4174224;28;5742;-61
2022/03/27 10:44:56;;;;;;;;;;;;;;;13.12;43.33;97884.03;4174206;28;5827;-62
2022/03/27 10:47:16;;;;;;;;;;;;;;;13.12;42.93;97884.03;4168155;28;5720;-62
2022/03/27 10:49:17;;;;;;;;;;;;;;;13.21;43.79;97872.34;4167499;28;5764;-62
2022/03/27 10:51:25;;;;;;;;;;;;;;;13.17;41.89;97876.34;4168132;28;5736;-62
2022/03/27 10:53:27;;;;;;;;;;;;;;;13.11;42.37;97864.63;4174064;28;6559;-62
2022/03/27 10:55:45;;;;;;;;;;;;;;;13.06;42.41;97861.69;4183890;28;5802;-62
2022/03/27 10:57:51;;;;;;;;;;;;;;;13.14;40.80;97860.78;4179132;28;5119;-62
2022/03/27 10:59:53;;;;;;;;;;;;;;;12.99;40.77;97859.94;4173569;28;5846;-62
2022/03/27 11:02:02;;;;;;;;;;;;;;;13.18;38.79;97854.09;4171147;28;5711;-62
2022/03/27 11:04:09;;;;;;;;;;;;;;;13.34;39.39;97851.28;4174793;28;5991;-62
2022/03/27 11:06:20;;;;;;;;;;;;;;;13.32;39.11;97850.63;4186384;28;7798;-61
2022/03/27 11:08:23;;;;;;;;;;;;;;;13.36;38.89;97851.94;4200203;28;5702;-61
2022/03/27 11:10:41;;;;;;;;;;;;;;;13.33;37.87;97843.50;4179195;28;5706;-61
2022/03/27 11:12:42;;;;;;;;;;;;;;;13.33;38.73;97848.81;4171358;28;5736;-61
2022/03/27 11:14:53;;;;;;;;;;;;;;;13.39;37.77;97848.91;4174639;28;6487;-62
2022/03/27 11:17:04;;;;;;;;;;;;;;;13.46;38.79;97842.84;4166822;28;5806;-61
2022/03/27 11:19:39;;;;;;;;;;;;;;;13.43;38.43;97838.72;4166537;28;5749;-62
2022/03/27 11:21:46;;;;;;;;;;;;;;;13.51;38.48;97841.28;4168335;28;5740;-62
2022/03/27 11:23:49;;;;;;;;;;;;;;;13.59;38.68;97832.34;4181409;28;5726;-61
2022/03/27 11:25:50;;;;;;;;;;;;;;;13.66;37.48;97833.28;4166837;28;5812;-61
2022/03/27 11:28:07;;;;;;;;;;;;;;;13.62;37.75;97834.66;4177876;28;5723;-62
2022/03/27 11:30:10;;;;;;;;;;;;;;;13.76;37.96;97823.16;4174940;28;5858;-61
2022/03/27 11:32:11;;;;;;;;;;;;;;;13.90;37.66;97830.25;4174666;28;5824;-62
2022/03/27 11:34:17;;;;;;;;;;;;;;;13.93;36.88;97832.56;4161641;28;5983;-61
2022/03/27 11:36:19;;;;;;;;;;;;;;;13.80;36.33;97835.06;4175661;28;5765;-61
2022/03/27 11:38:25;;;;;;;;;;;;;;;13.96;36.95;97824.19;4164624;28;5855;-61
2022/03/27 11:40:40;;;;;;;;;;;;;;;14.09;35.52;97822.69;4165464;28;7740;-60
2022/03/27 11:42:42;;;;;;;;;;;;;;;14.04;34.01;97828.56;4179594;28;5767;-61
2022/03/27 11:47:04;;;;;;;;;;;;;;;13.90;35.92;97827.59;4172071;28;5802;-60
2022/03/27 11:49:11;;;;;;;;;;;;;;;14.07;35.79;97820.22;4177652;28;5861;-61
2022/03/27 11:51:14;;;;;;;;;;;;;;;14.13;36.38;97823.94;4167776;28;5903;-60
2022/03/27 11:53:16;;;;;;;;;;;;;;;14.10;34.31;97816.34;4179905;28;6438;-61
2022/03/27 11:55:19;;;;;;;;;;;;;;;14.22;35.55;97818.31;4173097;28;5832;-61
2022/03/27 11:57:20;;;;;;;;;;;;;;;14.23;34.40;97822.59;4163984;28;5907;-61
2022/03/27 11:59:26;;;;;;;;;;;;;;;14.28;33.65;97814.06;4173835;28;5830;-61
2022/03/27 12:01:27;;;;;;;;;;;;;;;14.31;34.47;97813.69;4178544;28;5969;-61
2022/03/27 12:03:29;;;;;;;;;;;;;;;14.30;33.43;97809.38;4166640;28;5831;-61
2022/03/27 12:05:34;;;;;;;;;;;;;;;14.23;33.24;97803.16;4175615;28;5991;-61
2022/03/27 12:07:55;;;;;;;;;;;;;;;14.31;34.71;97815.50;4165214;28;5875;-61
2022/03/27 12:10:02;;;;;;;;;;;;;;;14.48;33.08;97814.25;4166042;28;5825;-61
2022/03/27 12:12:10;;;;;;;;;;;;;;;14.56;34.05;97817.59;4162946;28;5835;-61
2022/03/27 12:14:12;;;;;;;;;;;;;;;14.65;34.32;97809.47;4164351;28;5846;-61
2022/03/27 12:16:20;;;;;;;;;;;;;;;14.71;33.98;97800.69;4166972;28;5850;-61
2022/03/27 12:18:49;;;;;;;;;;;;;;;14.68;33.67;97801.09;4168938;28;5829;-61
2022/03/27 12:20:51;;;;;;;;;;;;;;;14.65;35.35;97806.81;4176628;28;5848;-60
2022/03/27 12:22:53;;;;;;;;;;;;;;;14.75;35.68;97801.97;4161356;28;5871;-61
2022/03/27 12:24:55;;;;;;;;;;;;;;;14.71;35.95;97792.72;4163932;28;5823;-61
2022/03/27 12:31:42;;;;;;;;;;;;;;;14.90;36.25;97793.84;4164323;28;5979;-60
2022/03/27 12:33:44;;;;;;;;;;;;;;;14.92;36.95;97792.63;4169723;28;5841;-61
2022/03/27 12:35:47;;;;;;;;;;;;;;;14.87;36.55;97788.94;4162759;28;6083;-60
2022/03/27 12:37:50;;;;;;;;;;;;;;;14.97;35.40;97787.56;4170471;28;5839;-59
2022/03/27 12:39:52;;;;;;;;;;;;;;;14.99;34.83;97780.19;4169604;28;5931;-61
2022/03/27 12:41:53;;;;;;;;;;;;;;;14.98;34.26;97780.41;4172218;28;5916;-61
2022/03/27 12:43:56;;;;;;;;;;;;;;;15.02;35.06;97770.97;4171134;28;6570;-64
2022/03/27 12:45:58;;;;;;;;;;;;;;;14.97;35.58;97770.75;4171682;28;5901;-59
2022/03/27 12:48:12;;;;;;;;;;;;;;;14.98;34.83;97778.56;4167264;28;5819;-59
2022/03/27 12:50:27;;;;;;;;;;;;;;;15.01;34.40;97777.34;4177461;28;5825;-59
2022/03/27 12:52:28;;;;;;;;;;;;;;;15.02;34.75;97779.78;4172233;28;5830;-59
2022/03/27 12:54:30;;;;;;;;;;;;;;;15.09;34.56;97778.00;4177140;28;5801;-59
2022/03/27 12:56:33;;;;;;;;;;;;;;;14.96;34.11;97777.94;4175322;28;6596;-62
2022/03/27 12:58:39;;;;;;;;;;;;;;;14.92;34.55;97771.34;4176728;28;5810;-60
2022/03/27 13:00:41;;;;;;;;;;;;;;;15.03;35.52;97775.28;4186342;28;5873;-60
2022/03/27 13:02:43;;;;;;;;;;;;;;;15.02;36.91;97773.66;4170598;28;6004;-61
2022/03/27 13:05:00;;;;;;;;;;;;;;;14.75;37.47;97764.69;4178532;28;6022;-61
2022/03/27 13:07:03;;;;;;;;;;;;;;;14.95;37.32;97765.66;4171703;28;5976;-63
2022/03/27 13:09:08;;;;;;;;;;;;;;;15.20;37.70;97762.47;4165642;28;5843;-63
2022/03/27 13:11:12;;;;;;;;;;;;;;;15.32;37.77;97761.69;4165589;28;5843;-64
2022/03/27 13:13:17;;;;;;;;;;;;;;;15.43;37.64;97762.97;4168564;28;5806;-64
2022/03/27 13:15:43;;;;;;;;;;;;;;;15.20;37.06;97751.81;4165644;28;5842;-61
2022/03/27 13:17:45;;;;;;;;;;;;;;;15.36;37.33;97754.13;4173923;28;5830;-63
2022/03/27 13:19:46;;;;;;;;;;;;;;;15.37;37.59;97753.91;4171113;28;5815;-61
2022/03/27 13:21:53;;;;;;;;;;;;;;;15.47;37.88;97748.22;4166584;28;5818;-60
2022/03/27 13:23:55;;;;;;;;;;;;;;;15.49;37.49;97754.16;4177013;28;5818;-61
2022/03/27 13:25:57;;;;;;;;;;;;;;;15.60;37.48;97748.28;4169973;28;5954;-61
2022/03/27 13:27:58;;;;;;;;;;;;;;;15.65;37.45;97750.34;4173073;28;5715;-60
2022/03/27 13:30:00;;;;;;;;;;;;;;;15.65;37.09;97745.84;4180876;28;5881;-61
2022/03/27 13:32:02;;;;;;;;;;;;;;;15.72;36.89;97749.31;4170184;28;5796;-61
2022/03/27 13:34:07;;;;;;;;;;;;;;;15.76;36.49;97740.94;4180164;28;6419;-60
2022/03/27 13:36:09;;;;;;;;;;;;;;;15.69;36.33;97741.75;4176673;28;5732;-60
2022/03/27 13:38:11;;;;;;;;;;;;;;;15.66;36.49;97739.47;4176105;28;5730;-61
2022/03/27 13:40:12;;;;;;;;;;;;;;;15.54;36.08;97741.06;4177410;28;5256;-63
2022/03/27 13:44:37;;;;;;;;;;;;;;;15.70;36.14;97732.72;4175473;28;5876;-64
2022/03/27 13:46:42;;;;;;;;;;;;;;;15.67;36.34;97733.13;4176601;28;5866;-65
2022/03/27 13:48:44;;;;;;;;;;;;;;;15.63;36.16;97726.56;4174673;28;5774;-63
2022/03/27 13:50:45;;;;;;;;;;;;;;;15.63;35.55;97726.56;4170338;28;5994;-64
2022/03/27 13:52:47;;;;;;;;;;;;;;;15.62;35.58;97724.91;4176418;28;5804;-65
2022/03/27 13:54:49;;;;;;;;;;;;;;;15.62;34.53;97729.41;4178776;28;5096;-64
2022/03/27 13:56:51;;;;;;;;;;;;;;;15.54;35.82;97727.75;4177485;28;6423;-62
2022/03/27 13:58:52;;;;;;;;;;;;;;;15.54;35.76;97713.59;4174863;28;5801;-63
2022/03/27 14:00:54;;;;;;;;;;;;;;;15.56;36.41;97724.88;4173372;28;6961;-64
2022/03/27 14:02:56;;;;;;;;;;;;;;;15.64;36.94;97722.06;4173877;28;7081;-64
2022/03/27 14:04:58;;;;;;;;;;;;;;;15.63;36.41;97731.09;4179018;28;5818;-64
2022/03/27 14:07:00;;;;;;;;;;;;;;;15.58;37.33;97726.31;4186990;28;5902;-64
2022/03/27 14:09:02;;;;;;;;;;;;;;;15.56;37.26;97724.88;4180176;28;5815;-63
2022/03/27 14:11:04;;;;;;;;;;;;;;;15.66;38.48;97714.66;4182374;28;5862;-63
2022/03/27 14:13:06;;;;;;;;;;;;;;;15.65;38.69;97729.03;4186230;28;5746;-63
2022/03/27 14:15:08;;;;;;;;;;;;;;;15.65;38.94;97724.53;4195933;28;5731;-63
2022/03/27 14:17:12;;;;;;;;;;;;;;;15.61;38.34;97717.94;4183448;28;5784;-64
2022/03/27 14:19:14;;;;;;;;;;;;;;;15.59;37.96;97719.13;4185858;28;5751;-64
2022/03/27 14:21:16;;;;;;;;;;;;;;;15.61;37.37;97722.44;4186080;28;6011;-64
2022/03/27 14:23:18;;;;;;;;;;;;;;;15.66;36.74;97709.34;4180740;28;5731;-62
2022/03/27 14:25:19;;;;;;;;;;;;;;;15.65;35.60;97713.84;4178519;28;5115;-65
2022/03/27 14:27:22;;;;;;;;;;;;;;;15.64;34.43;97706.06;4184086;28;5725;-65
2022/03/27 14:29:24;;;;;;;;;;;;;;;15.64;33.30;97706.06;4175678;28;5722;-64
2022/03/27 14:31:25;;;;;;;;;;;;;;;15.54;32.99;97709.09;4182774;28;5818;-64
2022/03/27 14:33:28;;;;;;;;;;;;;;;15.56;32.43;97706.22;4183665;28;6551;-64
2022/03/27 14:35:30;;;;;;;;;;;;;;;15.58;31.90;97704.97;4177578;28;5710;-64
2022/03/27 14:37:33;;;;;;;;;;;;;;;15.54;31.97;97705.59;4176367;28;5103;-63
2022/03/27 14:39:35;;;;;;;;;;;;;;;15.52;31.12;97705.81;4181470;28;6661;-63
2022/03/27 14:41:36;;;;;;;;;;;;;;;15.45;31.21;97712.97;4174219;28;6520;-67
2022/03/27 14:43:38;;;;;;;;;;;;;;;15.42;30.84;97711.53;4182342;28;5088;-64
2022/03/27 14:45:40;;;;;;;;;;;;;;;15.38;31.34;97704.94;4179668;28;7802;-67
2022/03/27 14:47:42;;;;;;;;;;;;;;;15.35;31.21;97701.84;4187681;28;5715;-64
2022/03/27 14:49:45;;;;;;;;;;;;;;;15.33;31.28;97698.59;4180284;28;5787;-63
2022/03/27 14:51:46;;;;;;;;;;;;;;;15.22;31.44;97699.16;4182333;28;5862;-62
2022/03/27 14:56:08;;;;;;;;;;;;;;;15.24;31.60;97689.94;4180453;28;5714;-62
2022/03/27 14:58:12;;;;;;;;;;;;;;;15.23;32.43;97698.13;4189392;28;5806;-62
2022/03/27 15:00:14;;;;;;;;;;;;;;;15.29;32.68;97694.66;4178520;28;5723;-61
2022/03/27 15:02:17;;;;;;;;;;;;;;;15.33;33.54;97693.25;4169791;28;5776;-62
2022/03/27 15:04:18;;;;;;;;;;;;;;;15.31;33.48;97696.13;4175901;28;5851;-63
2022/03/27 15:06:31;;;;;;;;;;;;;;;15.24;33.40;97689.94;4176958;28;5746;-63
2022/03/27 15:08:33;;;;;;;;;;;;;;;15.22;32.25;97696.50;4188700;28;5829;-61
2022/03/27 15:10:36;;;;;;;;;;;;;;;15.20;33.11;97693.22;4181905;28;5825;-63
2022/03/27 15:12:38;;;;;;;;;;;;;;;15.23;33.36;97692.81;4181012;28;6500;-61
2022/03/27 15:14:43;;;;;;;;;;;;;;;15.24;33.43;97689.94;4177836;28;5798;-61
2022/03/27 15:16:45;;;;;;;;;;;;;;;15.27;33.60;97691.38;4180241;28;6143;-62
2022/03/27 15:18:46;;;;;;;;;;;;;;;15.29;33.53;97697.31;4190197;28;5791;-62
2022/03/27 15:20:48;;;;;;;;;;;;;;;15.29;33.83;97689.31;4176303;28;5756;-62
2022/03/27 15:22:50;;;;;;;;;;;;;;;15.34;34.19;97689.56;4196696;28;5798;-62
2022/03/27 15:24:52;;;;;;;;;;;;;;;15.37;34.36;97691.81;4181945;28;5700;-61
2022/03/27 15:26:54;;;;;;;;;;;;;;;15.40;34.99;97688.75;4190385;28;5720;-63
2022/03/27 15:28:56;;;;;;;;;;;;;;;15.42;34.71;97689.38;4181832;28;5719;-63
2022/03/27 15:30:58;;;;;;;;;;;;;;;15.44;34.69;97682.81;4180288;28;5870;-65
2022/03/27 15:33:00;;;;;;;;;;;;;;;15.44;34.07;97687.34;4183075;28;5810;-64
2022/03/27 15:35:04;;;;;;;;;;;;;;;15.44;33.70;97674.84;4190607;28;5733;-65
2022/03/27 15:37:06;;;;;;;;;;;;;;;15.46;33.37;97685.28;4180163;28;5833;-65
2022/03/27 15:39:08;;;;;;;;;;;;;;;15.45;33.41;97670.31;4179923;28;5902;-64
2022/03/27 15:41:11;;;;;;;;;;;;;;;15.44;33.53;97669.50;4178989;28;5850;-64
2022/03/27 15:43:13;;;;;;;;;;;;;;;15.47;34.11;97670.94;4185818;28;5921;-63
2022/03/27 15:45:18;;;;;;;;;;;;;;;15.50;34.17;97675.84;4176408;28;5890;-64
2022/03/27 15:47:20;;;;;;;;;;;;;;;15.46;33.71;97673.81;4165682;28;5967;-61
2022/03/27 15:49:22;;;;;;;;;;;;;;;15.45;34.30;97678.31;4166025;28;6533;-62
2022/03/27 15:51:23;;;;;;;;;;;;;;;15.51;34.68;97674.81;4170655;28;6517;-62
2022/03/27 15:53:25;;;;;;;;;;;;;;;15.54;35.47;97674.44;4172007;28;5873;-62
2022/03/27 15:55:27;;;;;;;;;;;;;;;15.54;35.65;97674.44;4175421;28;5785;-63
2022/03/27 15:57:29;;;;;;;;;;;;;;;15.58;35.34;97669.53;4178309;28;5733;-62
2022/03/27 15:59:31;;;;;;;;;;;;;;;15.58;35.54;97670.34;4179884;28;5871;-63
2022/03/27 16:01:32;;;;;;;;;;;;;;;15.60;35.16;97672.81;4174475;28;5774;-60
2022/03/27 16:03:35;;;;;;;;;;;;;;;15.58;35.29;97672.19;4178646;28;5715;-61
2022/03/27 16:05:39;;;;;;;;;;;;;;;15.60;35.16;97675.50;4186492;28;5928;-62
2022/03/27 16:07:41;;;;;;;;;;;;;;;15.57;35.64;97676.69;4181703;28;5939;-60
2022/03/27 16:09:43;;;;;;;;;;;;;;;15.39;36.56;97676.44;4176406;28;5811;-61
2022/03/27 16:11:45;;;;;;;;;;;;;;;15.39;37.48;97681.78;4185701;28;5730;-60
2022/03/27 16:13:47;;;;;;;;;;;;;;;15.43;37.75;97673.19;4177594;28;5712;-63
2022/03/27 16:15:48;;;;;;;;;;;;;;;15.46;37.89;97674.63;4191532;28;5919;-65
2022/03/27 16:17:51;;;;;;;;;;;;;;;15.42;36.56;97679.56;4178486;28;5097;-62
2022/03/27 16:19:52;;;;;;;;;;;;;;;15.43;36.28;97675.03;4180560;28;5734;-61
2022/03/27 16:21:54;;;;;;;;;;;;;;;15.34;35.18;97682.38;4183842;28;6006;-61
2022/03/27 16:23:56;;;;;;;;;;;;;;;15.29;35.54;97670.69;4181076;28;6225;-61
2022/03/27 16:25:57;;;;;;;;;;;;;;;15.33;35.96;97679.94;4176233;28;5720;-62
2022/03/27 16:27:59;;;;;;;;;;;;;;;15.38;35.86;97677.47;4172943;28;6408;-62
2022/03/27 16:30:01;;;;;;;;;;;;;;;15.34;36.71;97678.91;4174521;28;5855;-61
2022/03/27 16:32:04;;;;;;;;;;;;;;;15.41;36.67;97674.44;4178994;28;5778;-62
2022/03/27 16:34:05;;;;;;;;;;;;;;;15.35;35.63;97685.88;4182828;28;5747;-62
2022/03/27 16:36:07;;;;;;;;;;;;;;;15.27;37.47;97683.38;4190746;28;5701;-63
2022/03/27 16:38:09;;;;;;;;;;;;;;;15.35;36.42;97677.88;4183024;28;5798;-63
2022/03/27 16:40:11;;;;;;;;;;;;;;;15.33;37.03;97682.59;4182907;28;5843;-64
2022/03/27 16:42:13;;;;;;;;;;;;;;;15.30;39.34;97683.81;4189045;28;5103;-62
2022/03/27 16:44:14;;;;;;;;;;;;;;;15.24;39.97;97689.94;4177388;28;5765;-62
2022/03/27 16:46:16;;;;;;;;;;;;;;;14.87;45.39;97685.94;4191796;28;5716;-64
2022/03/27 16:48:18;;;;;;;;;;;;;;;14.79;44.53;97697.56;4199712;28;5800;-62
2022/03/27 16:50:20;;;;;;;;;;;;;;;14.81;45.61;97690.19;4190111;28;6398;-62
2022/03/27 16:52:21;;;;;;;;;;;;;;;14.76;49.50;97692.63;4185169;28;5732;-62
2022/03/27 16:54:23;;;;;;;;;;;;;;;14.68;50.58;97698.13;4184337;28;5763;-66
2022/03/27 16:56:25;;;;;;;;;;;;;;;14.41;51.83;97699.78;4185493;28;5736;-62
2022/03/27 16:58:27;;;;;;;;;;;;;;;14.43;51.55;97702.25;4182609;28;5804;-62
2022/03/27 17:00:28;;;;;;;;;;;;;;;14.47;49.72;97700.84;4191536;28;5834;-61
2022/03/27 17:02:30;;;;;;;;;;;;;;;14.30;51.19;97696.84;4183440;28;5831;-62
2022/03/27 17:04:32;;;;;;;;;;;;;;;14.35;50.71;97700.53;4177934;28;5743;-61
2022/03/27 17:06:34;;;;;;;;;;;;;;;14.22;51.86;97695.97;4176524;28;5843;-62
2022/03/27 17:08:37;;;;;;;;;;;;;;;14.42;49.12;97700.59;4178596;28;5941;-64
2022/03/27 17:10:38;;;;;;;;;;;;;;;14.59;48.57;97701.94;4176406;28;5719;-64
2022/03/27 17:12:40;;;;;;;;;;;;;;;14.68;48.11;97699.97;4180461;28;5793;-64
2022/03/27 17:14:43;;;;;;;;;;;;;;;14.60;48.92;97700.09;4189108;28;5708;-61
2022/03/27 17:16:46;;;;;;;;;;;;;;;14.64;48.73;97704.84;4186548;28;5721;-64
2022/03/27 17:18:47;;;;;;;;;;;;;;;14.60;49.38;97702.78;4178265;28;6003;-64
2022/03/27 17:21:09;;;;;;;;;;;;;;;14.60;49.64;97700.94;4170865;28;5728;-64
2022/03/27 17:23:11;;;;;;;;;;;;;;;14.67;48.53;97699.13;4176941;28;6183;-64
2022/03/27 17:25:13;;;;;;;;;;;;;;;14.60;48.92;97695.59;4168407;28;5825;-65
2022/03/27 17:27:16;;;;;;;;;;;;;;;14.54;48.66;97694.56;4173983;28;5811;-65
2022/03/27 17:29:18;;;;;;;;;;;;;;;14.32;49.92;97694.81;4179192;28;5825;-65
2022/03/27 17:31:22;;;;;;;;;;;;;;;14.20;49.85;97698.00;4175172;28;5833;-64
2022/03/27 17:33:24;;;;;;;;;;;;;;;14.10;49.75;97702.00;4178868;28;5778;-64
2022/03/27 17:35:25;;;;;;;;;;;;;;;13.92;50.42;97686.53;4174424;28;5810;-65
2022/03/27 17:37:27;;;;;;;;;;;;;;;13.82;50.07;97689.53;4176567;28;5967;-65
2022/03/27 17:39:31;;;;;;;;;;;;;;;13.90;49.81;97694.69;4175309;28;5719;-66
2022/03/27 17:41:33;;;;;;;;;;;;;;;13.81;50.40;97697.69;4178001;28;5899;-64
2022/03/27 17:43:35;;;;;;;;;;;;;;;13.72;48.77;97699.66;4182708;28;6412;-64
2022/03/27 17:45:37;;;;;;;;;;;;;;;13.64;47.11;97699.78;4172057;28;5803;-65
2022/03/27 17:47:40;;;;;;;;;;;;;;;13.66;47.07;97695.09;4178538;28;5852;-64
2022/03/27 17:49:42;;;;;;;;;;;;;;;13.77;46.72;97693.75;4178872;28;5733;-65
2022/03/27 17:51:44;;;;;;;;;;;;;;;13.79;46.38;97707.69;4178986;28;5702;-64
2022/03/27 17:53:46;;;;;;;;;;;;;;;13.75;46.80;97699.28;4175466;28;5719;-64
2022/03/27 17:55:48;;;;;;;;;;;;;;;13.76;47.40;97703.56;4181430;28;5706;-64
2022/03/27 17:57:49;;;;;;;;;;;;;;;13.83;47.13;97696.50;4172246;28;5917;-64
2022/03/27 17:59:52;;;;;;;;;;;;;;;13.89;46.73;97701.03;4172495;28;5723;-64
2022/03/27 18:01:53;;;;;;;;;;;;;;;13.97;46.91;97714.19;4176175;28;5707;-64
2022/03/27 18:03:56;;;;;;;;;;;;;;;13.91;45.97;97706.97;4180414;28;5763;-64
2022/03/27 18:05:59;;;;;;;;;;;;;;;13.87;45.82;97712.88;4171999;28;5815;-64
2022/03/27 18:08:00;;;;;;;;;;;;;;;13.91;44.63;97709.63;4166947;28;5828;-68
2022/03/27 18:10:02;;;;;;;;;;;;;;;13.82;44.80;97715.28;4166919;28;5835;-66
2022/03/27 18:12:08;;;;;;;;;;;;;;;13.74;44.99;97710.09;4169694;28;5699;-66
2022/03/27 18:14:11;;;;;;;;;;;;;;;13.78;44.92;97714.84;4164759;28;5943;-71
2022/03/27 18:16:14;;;;;;;;;;;;;;;13.89;45.02;97709.00;4166947;28;5733;-74
2022/03/27 18:18:16;;;;;;;;;;;;;;;13.99;44.60;97717.47;4177036;28;5730;-73
2022/03/27 18:20:18;;;;;;;;;;;;;;;14.02;44.83;97720.75;4174326;28;5736;-69
2022/03/27 18:22:21;;;;;;;;;;;;;;;14.12;44.51;97726.56;4173438;28;5981;-77
2022/03/27 18:24:22;;;;;;;;;;;;;;;14.11;44.49;97725.75;4172893;28;5898;-72
2022/03/27 18:26:24;;;;;;;;;;;;;;;14.13;44.53;97722.88;4153361;28;5829;-67
2022/03/27 18:28:27;;;;;;;;;;;;;;;14.12;44.23;97721.25;4172648;28;6030;-71
2022/03/27 18:30:28;;;;;;;;;;;;;;;14.16;44.16;97727.84;4168430;28;5744;-74
2022/03/27 18:32:30;;;;;;;;;;;;;;;14.13;44.32;97728.22;4173856;28;6634;-73
2022/03/27 18:34:32;;;;;;;;;;;;;;;14.15;44.23;97726.19;4171256;28;5724;-64
2022/03/27 18:36:35;;;;;;;;;;;;;;;14.07;43.51;97723.69;4168686;28;5760;-66
2022/03/27 18:38:37;;;;;;;;;;;;;;;14.12;44.02;97732.72;4173008;28;6106;-65
2022/03/27 18:40:39;;;;;;;;;;;;;;;14.10;44.06;97733.91;4173257;28;5871;-67
2022/03/27 18:42:45;;;;;;;;;;;;;;;14.10;44.25;97733.91;4170763;28;6025;-66
2022/03/27 18:44:49;;;;;;;;;;;;;;;14.04;44.22;97732.84;4167663;28;7180;-68
2022/03/27 18:46:50;;;;;;;;;;;;;;;13.98;43.74;97737.09;4175886;28;7766;-77
2022/03/27 18:48:52;;;;;;;;;;;;;;;13.97;43.96;97738.13;4170671;28;5101;-71
2022/03/27 18:50:55;;;;;;;;;;;;;;;13.96;44.57;97740.97;4176105;28;5748;-78
2022/03/27 18:52:57;;;;;;;;;;;;;;;14.06;44.02;97749.44;4174337;28;6423;-69
2022/03/27 18:54:58;;;;;;;;;;;;;;;14.03;43.71;97748.97;4170859;28;5805;-73
2022/03/27 18:57:03;;;;;;;;;;;;;;;14.06;43.81;97744.13;4170117;28;5893;-73
2022/03/27 18:59:05;;;;;;;;;;;;;;;14.11;43.27;97736.38;4171575;28;5875;-69
2022/03/27 19:01:08;;;;;;;;;;;;;;;14.10;42.78;97750.69;4168742;28;5872;-70
2022/03/27 19:03:15;;;;;;;;;;;;;;;14.06;41.76;97748.63;4165412;28;5736;-68
2022/03/27 19:05:17;;;;;;;;;;;;;;;14.07;41.07;97750.25;4165964;28;5961;-74
2022/03/27 19:07:18;;;;;;;;;;;;;;;14.02;41.73;97748.16;4177714;28;6380;-74
2022/03/27 19:09:21;;;;;;;;;;;;;;;13.94;40.42;97751.78;4167368;28;5842;-62
2022/03/27 19:11:24;;;;;;;;;;;;;;;13.86;40.75;97751.09;4181722;28;6523;-63
2022/03/27 19:13:26;;;;;;;;;;;;;;;13.84;40.07;97750.47;4172696;28;5365;-62